createdAt,value
2022-12-07T00:01:27.337Z,11.00
2022-12-07T00:04:01.643Z,11.50
2022-12-07T00:06:30.304Z,11.00
2022-12-07T00:08:57.675Z,9.43
2022-12-07T00:11:25.637Z,10.57
2022-12-07T00:13:55.117Z,11.77
2022-12-07T00:16:24.302Z,10.40
2022-12-07T00:18:51.871Z,10.82
2022-12-07T00:21:27.025Z,19.75
2022-12-07T00:23:56.073Z,12.00
2022-12-07T00:26:28.029Z,11.23
2022-12-07T00:29:00.576Z,10.88
2022-12-07T00:31:30.760Z,10.55
2022-12-07T00:33:59.447Z,11.30
2022-12-07T00:36:27.669Z,9.88
2022-12-07T00:38:58.271Z,11.60
2022-12-07T00:41:27.167Z,11.38
2022-12-07T00:43:54.858Z,12.18
2022-12-07T00:46:23.226Z,12.20
2022-12-07T00:48:52.178Z,11.35
2022-12-07T00:51:21.882Z,11.40
2022-12-07T00:53:49.261Z,10.30
2022-12-07T00:56:23.081Z,11.50
2022-12-07T00:58:55.368Z,10.82
2022-12-07T01:01:23.573Z,12.07
2022-12-07T01:03:51.208Z,10.02
2022-12-07T01:06:23.949Z,12.95
2022-12-07T01:08:51.964Z,11.80
2022-12-07T01:11:24.979Z,13.85
2022-12-07T01:13:54.387Z,19.83
2022-12-07T01:16:23.377Z,12.57
2022-12-07T01:18:55.217Z,12.10
2022-12-07T01:21:25.233Z,10.90
2022-12-07T01:23:53.074Z,11.75
2022-12-07T01:26:23.351Z,11.00
2022-12-07T01:28:51.347Z,11.05
2022-12-07T01:31:21.542Z,11.45
2022-12-07T01:33:54.049Z,10.93
2022-12-07T01:36:29.376Z,11.73
2022-12-07T01:38:59.706Z,11.32
2022-12-07T01:41:29.827Z,11.07
2022-12-07T01:44:09.291Z,11.88
2022-12-07T01:46:37.060Z,10.73
2022-12-07T01:49:11.545Z,11.70
2022-12-07T01:51:41.261Z,11.73
2022-12-07T01:54:11.157Z,11.73
2022-12-07T01:56:41.186Z,11.38
2022-12-07T01:59:09.290Z,13.40
2022-12-07T02:01:36.658Z,12.20
2022-12-07T02:04:04.561Z,11.68
2022-12-07T02:06:32.107Z,11.75
2022-12-07T02:08:59.539Z,12.18
2022-12-07T02:11:26.881Z,11.60
2022-12-07T02:13:54.719Z,11.77
2022-12-07T02:16:40.327Z,11.02
2022-12-07T02:19:55.174Z,10.45
2022-12-07T02:22:28.968Z,11.88
2022-12-07T02:25:42.717Z,12.10
2022-12-07T02:28:22.654Z,10.90
2022-12-07T02:30:53.448Z,11.68
2022-12-07T02:33:23.531Z,11.38
2022-12-07T02:36:09.232Z,11.60
2022-12-07T02:38:49.520Z,10.20
2022-12-07T02:41:25.521Z,11.98
2022-12-07T02:43:59.657Z,13.02
2022-12-07T02:46:37.078Z,12.35
2022-12-07T02:49:05.276Z,11.30
2022-12-07T02:51:34.359Z,12.23
2022-12-07T02:54:02.091Z,12.73
2022-12-07T02:56:40.040Z,12.32
2022-12-07T02:59:07.244Z,11.95
2022-12-07T03:01:53.884Z,13.55
2022-12-07T03:04:51.577Z,11.68
2022-12-07T03:07:39.766Z,11.90
2022-12-07T03:11:03.885Z,11.57
2022-12-07T03:13:34.209Z,13.43
2022-12-07T03:16:15.579Z,14.93
2022-12-07T03:19:04.375Z,12.93
2022-12-07T03:22:00.884Z,14.73
2022-12-07T03:24:32.178Z,14.17
2022-12-07T03:27:12.033Z,14.50
2022-12-07T03:29:45.136Z,14.57
2022-12-07T03:32:38.657Z,14.57
2022-12-07T03:35:17.035Z,14.48
2022-12-07T03:37:52.624Z,13.18
2022-12-07T03:40:33.653Z,14.85
2022-12-07T03:43:02.865Z,12.73
2022-12-07T03:46:00.539Z,14.93
2022-12-07T03:48:56.451Z,14.60
2022-12-07T03:51:29.557Z,13.88
2022-12-07T03:54:06.671Z,14.60
2022-12-07T03:56:34.939Z,12.30
2022-12-07T03:59:02.316Z,14.07
2022-12-07T04:01:29.659Z,12.93
2022-12-07T04:03:57.142Z,14.27
2022-12-07T04:06:24.468Z,13.23
2022-12-07T04:08:51.809Z,12.30
2022-12-07T04:11:19.149Z,15.43
2022-12-07T04:14:05.595Z,12.88
2022-12-07T04:16:32.891Z,12.43
2022-12-07T04:19:00.357Z,12.27
2022-12-07T04:21:27.743Z,13.20
2022-12-07T04:23:55.552Z,11.90
2022-12-07T04:26:23.019Z,11.50
2022-12-07T04:28:50.374Z,11.48
2022-12-07T04:31:17.716Z,11.02
2022-12-07T04:33:45.083Z,12.13
2022-12-07T04:36:12.900Z,11.27
2022-12-07T04:38:40.285Z,10.43
2022-12-07T04:41:08.798Z,9.75
2022-12-07T04:43:36.571Z,10.38
2022-12-07T04:46:03.980Z,11.32
2022-12-07T04:48:31.509Z,10.98
2022-12-07T04:50:59.049Z,10.57
2022-12-07T04:53:26.471Z,11.10
2022-12-07T04:55:56.741Z,11.27
2022-12-07T04:58:24.153Z,10.10
2022-12-07T05:00:54.619Z,9.93
2022-12-07T05:03:21.959Z,10.00
2022-12-07T05:05:49.249Z,9.30
2022-12-07T05:08:16.597Z,11.40
2022-12-07T05:10:44.118Z,11.52
2022-12-07T05:13:11.439Z,12.10
2022-12-07T05:15:38.773Z,9.15
2022-12-07T05:18:06.120Z,12.25
2022-12-07T05:20:36.639Z,10.32
2022-12-07T05:23:08.113Z,10.40
2022-12-07T05:25:38.079Z,9.43
2022-12-07T05:28:06.662Z,10.63
2022-12-07T05:30:48.769Z,10.52
2022-12-07T05:33:16.881Z,11.55
2022-12-07T05:35:44.168Z,11.48
2022-12-07T05:38:11.468Z,9.80
2022-12-07T05:40:38.802Z,9.77
2022-12-07T05:43:06.108Z,10.10
2022-12-07T05:45:33.511Z,10.10
2022-12-07T05:48:00.964Z,8.13
2022-12-07T05:50:29.173Z,7.65
2022-12-07T05:52:56.517Z,9.48
2022-12-07T05:55:23.810Z,9.07
2022-12-07T05:58:09.773Z,9.68
2022-12-07T06:00:37.151Z,9.13
2022-12-07T06:03:04.594Z,10.80
2022-12-07T06:05:32.003Z,10.25
2022-12-07T06:08:04.099Z,9.57
2022-12-07T06:10:34.177Z,9.13
2022-12-07T06:13:01.496Z,9.90
2022-12-07T06:15:28.940Z,11.27
2022-12-07T06:17:56.219Z,9.02
2022-12-07T06:20:23.516Z,8.48
2022-12-07T06:22:50.775Z,11.05
2022-12-07T06:25:18.080Z,11.85
2022-12-07T06:27:45.456Z,9.88
2022-12-07T06:30:13.162Z,9.68
2022-12-07T06:32:40.436Z,10.43
2022-12-07T06:35:08.247Z,8.93
2022-12-07T06:37:35.538Z,8.80
2022-12-07T06:40:03.269Z,8.38
2022-12-07T06:42:30.638Z,8.80
2022-12-07T06:44:58.101Z,9.65
2022-12-07T06:47:40.207Z,10.85
2022-12-07T06:50:08.795Z,9.63
2022-12-07T06:52:36.295Z,9.95
2022-12-07T06:55:03.664Z,10.18
2022-12-07T06:57:31.121Z,10.10
2022-12-07T06:59:58.675Z,10.20
2022-12-07T07:02:25.969Z,9.60
2022-12-07T07:04:53.258Z,9.95
2022-12-07T07:07:20.569Z,11.82
2022-12-07T07:09:47.891Z,9.35
2022-12-07T07:12:15.430Z,9.63
2022-12-07T07:14:44.190Z,10.45
2022-12-07T07:17:11.954Z,10.50
2022-12-07T07:19:39.405Z,11.40
2022-12-07T07:22:06.864Z,10.65
2022-12-07T07:24:34.215Z,10.57
2022-12-07T07:27:01.662Z,10.27
2022-12-07T07:29:28.921Z,12.52
2022-12-07T07:31:56.431Z,11.35
2022-12-07T07:34:25.142Z,12.13
2022-12-07T07:36:52.457Z,11.10
2022-12-07T07:39:19.835Z,11.20
2022-12-07T07:41:47.760Z,10.32
2022-12-07T07:44:15.321Z,10.70
2022-12-07T07:46:42.828Z,9.63
2022-12-07T07:49:11.584Z,10.43
2022-12-07T07:51:38.996Z,9.98
2022-12-07T07:54:06.421Z,9.30
2022-12-07T07:56:33.695Z,10.10
2022-12-07T07:59:01.034Z,9.38
2022-12-07T08:01:28.384Z,10.23
2022-12-07T08:03:55.885Z,9.63
2022-12-07T08:06:29.062Z,10.02
2022-12-07T08:08:59.657Z,11.05
2022-12-07T08:11:26.940Z,11.73
2022-12-07T08:13:54.299Z,9.48
2022-12-07T08:16:21.717Z,9.73
2022-12-07T08:18:49.207Z,8.48
2022-12-07T08:21:16.924Z,9.20
2022-12-07T08:23:44.762Z,8.38
2022-12-07T08:26:15.096Z,8.98
2022-12-07T08:28:43.232Z,9.38
2022-12-07T08:31:14.163Z,8.63
2022-12-07T08:33:41.957Z,9.05
2022-12-07T08:36:11.535Z,8.65
2022-12-07T08:38:41.625Z,10.05
2022-12-07T08:41:10.273Z,8.65
2022-12-07T08:43:38.157Z,9.52
2022-12-07T08:46:24.992Z,8.25
2022-12-07T08:51:20.474Z,7.43
2022-12-07T08:53:48.277Z,9.07
2022-12-07T08:56:15.649Z,9.48
2022-12-07T08:58:43.466Z,9.68
2022-12-07T09:01:10.969Z,9.73
2022-12-07T09:03:38.326Z,8.00
2022-12-07T09:06:06.182Z,7.15
2022-12-07T09:08:42.809Z,8.15
2022-12-07T09:11:10.314Z,8.32
2022-12-07T09:13:37.689Z,8.35
2022-12-07T09:16:05.542Z,8.52
2022-12-07T09:18:33.003Z,8.88
2022-12-07T09:21:00.455Z,8.07
2022-12-07T09:23:27.755Z,7.93
2022-12-07T09:25:55.155Z,7.57
2022-12-07T09:28:22.472Z,9.00
2022-12-07T09:31:21.548Z,8.70
2022-12-07T09:33:37.587Z,7.93
2022-12-07T09:36:06.504Z,8.88
2022-12-07T09:38:33.936Z,8.38
2022-12-07T09:41:07.949Z,8.32
2022-12-07T09:43:37.574Z,9.90
2022-12-07T09:46:05.523Z,10.23
2022-12-07T09:48:37.883Z,9.15
2022-12-07T09:51:20.947Z,9.05
2022-12-07T09:53:51.649Z,9.50
2022-12-07T09:56:20.134Z,8.32
2022-12-07T09:58:48.448Z,9.80
2022-12-07T10:01:21.687Z,8.98
2022-12-07T10:03:53.374Z,8.93
2022-12-07T10:06:20.842Z,8.35
2022-12-07T10:08:48.818Z,8.27
2022-12-07T10:11:17.322Z,8.77
2022-12-07T10:13:54.182Z,9.70
2022-12-07T10:16:38.819Z,7.45
2022-12-07T10:19:38.708Z,8.73
2022-12-07T10:22:18.280Z,9.23
2022-12-07T10:24:48.197Z,9.95
2022-12-07T10:27:32.752Z,9.60
2022-12-07T10:30:01.059Z,9.23
2022-12-07T10:32:36.374Z,9.75
2022-12-07T10:35:29.853Z,11.07
2022-12-07T10:38:00.462Z,10.80
2022-12-07T10:40:33.370Z,10.60
2022-12-07T10:43:12.872Z,11.43
2022-12-07T10:46:03.704Z,10.98
2022-12-07T10:49:00.580Z,11.68
2022-12-07T10:51:53.403Z,8.68
2022-12-07T10:54:49.882Z,8.75
2022-12-07T10:57:46.603Z,8.47
2022-12-07T11:00:23.433Z,8.50
2022-12-07T11:03:18.994Z,8.85
2022-12-07T11:06:30.238Z,8.98
2022-12-07T11:10:06.962Z,9.63
2022-12-07T11:12:44.173Z,7.55
2022-12-07T11:15:32.850Z,8.95
2022-12-07T11:18:22.879Z,9.32
2022-12-07T11:20:54.575Z,8.63
2022-12-07T11:24:09.865Z,8.43
2022-12-07T11:26:58.087Z,9.93
2022-12-07T11:29:53.109Z,9.38
2022-12-07T11:32:50.302Z,9.15
2022-12-07T11:35:39.505Z,8.90
2022-12-07T11:38:18.193Z,8.75
2022-12-07T11:40:51.143Z,9.38
2022-12-07T11:43:33.075Z,9.13
2022-12-07T11:46:05.824Z,10.20
2022-12-07T11:48:58.535Z,9.20
2022-12-07T11:51:33.184Z,7.38
2022-12-07T11:54:12.326Z,7.43
2022-12-07T11:56:39.827Z,6.95
2022-12-07T11:59:24.682Z,8.80
2022-12-07T12:02:15.746Z,6.65
2022-12-07T12:04:59.432Z,6.90
2022-12-07T12:10:21.985Z,6.93
2022-12-07T12:16:34.650Z,8.00
2022-12-07T12:19:07.897Z,6.90
2022-12-07T12:21:36.970Z,7.43
2022-12-07T12:24:16.042Z,7.93
2022-12-07T12:27:13.573Z,8.20
2022-12-07T12:29:43.111Z,7.47
2022-12-07T12:32:23.399Z,7.88
2022-12-07T12:35:28.137Z,7.78
2022-12-07T12:37:56.593Z,7.40
2022-12-07T12:40:32.268Z,6.93
2022-12-07T12:42:59.706Z,8.38
2022-12-07T12:45:32.181Z,8.48
2022-12-07T12:48:26.460Z,8.90
2022-12-07T12:51:32.549Z,8.27
2022-12-07T12:54:12.240Z,7.95
2022-12-07T12:56:45.671Z,7.78
2022-12-07T12:59:24.127Z,8.82
2022-12-07T13:01:55.492Z,7.60
2022-12-07T13:04:31.876Z,8.45
2022-12-07T13:09:36.028Z,8.38
2022-12-07T13:12:14.346Z,19.40
2022-12-07T13:14:54.770Z,10.02
2022-12-07T13:17:34.237Z,7.53
2022-12-07T13:20:04.667Z,7.05
2022-12-07T13:22:31.918Z,8.00
2022-12-07T13:25:08.524Z,7.25
2022-12-07T13:27:40.127Z,8.05
2022-12-07T13:30:21.210Z,8.88
2022-12-07T13:32:56.973Z,7.30
2022-12-07T13:35:38.690Z,7.40
2022-12-07T13:38:17.998Z,6.15
2022-12-07T13:41:14.298Z,5.70
2022-12-07T13:43:53.665Z,6.82
2022-12-07T13:46:32.211Z,5.05
2022-12-07T13:48:59.711Z,5.53
2022-12-07T13:51:29.218Z,5.85
2022-12-07T13:54:02.073Z,6.32
2022-12-07T13:56:35.027Z,6.18
2022-12-07T13:59:03.024Z,6.10
2022-12-07T14:01:32.873Z,7.00
2022-12-07T14:04:31.793Z,6.65
2022-12-07T14:06:59.542Z,5.45
2022-12-07T14:09:29.614Z,5.32
2022-12-07T14:11:58.916Z,5.13
2022-12-07T14:14:37.017Z,5.68
2022-12-07T14:17:23.940Z,5.57
2022-12-07T14:20:01.197Z,6.43
2022-12-07T14:22:33.681Z,5.30
2022-12-07T14:25:23.359Z,5.75
2022-12-07T14:28:00.761Z,6.63
2022-12-07T14:30:35.089Z,6.10
2022-12-07T14:33:04.729Z,5.55
2022-12-07T14:35:33.237Z,5.15
2022-12-07T14:38:00.775Z,4.82
2022-12-07T14:40:30.055Z,5.70
2022-12-07T14:43:12.028Z,6.95
2022-12-07T14:45:40.801Z,6.55
2022-12-07T14:53:56.960Z,6.32
2022-12-07T14:56:29.425Z,7.45
2022-12-07T14:58:58.785Z,6.25
2022-12-07T15:01:26.224Z,6.57
2022-12-07T15:03:53.784Z,6.35
2022-12-07T15:06:22.417Z,6.63
2022-12-07T15:08:49.916Z,6.43
2022-12-07T15:11:18.869Z,5.82
2022-12-07T15:14:05.069Z,5.50
2022-12-07T15:16:52.404Z,6.32
2022-12-07T15:19:28.796Z,7.53
2022-12-07T15:21:58.105Z,7.32
2022-12-07T15:24:25.559Z,6.55
2022-12-07T15:26:53.340Z,7.00
2022-12-07T15:29:23.633Z,5.68
2022-12-07T15:31:57.805Z,7.07
2022-12-07T15:34:36.169Z,6.40
2022-12-07T15:37:05.500Z,6.38
2022-12-07T15:39:32.968Z,6.28
2022-12-07T15:42:00.461Z,5.80
2022-12-07T15:44:46.702Z,5.63
2022-12-07T15:47:14.036Z,4.80
2022-12-07T15:49:41.547Z,5.30
2022-12-07T15:52:08.831Z,5.32
2022-12-07T15:54:36.359Z,5.78
2022-12-07T15:57:03.826Z,6.28
2022-12-07T15:59:31.438Z,5.93
2022-12-07T16:02:00.000Z,5.50
2022-12-07T16:04:30.411Z,5.28
2022-12-07T16:06:58.390Z,6.80
2022-12-07T16:09:26.037Z,5.35
2022-12-07T16:11:53.407Z,5.82
2022-12-07T16:14:20.870Z,5.90
2022-12-07T16:16:49.232Z,6.82
2022-12-07T16:19:16.941Z,6.47
2022-12-07T16:21:44.601Z,6.78
2022-12-07T16:24:13.830Z,6.32
2022-12-07T16:26:46.325Z,7.78
2022-12-07T16:29:18.929Z,7.40
2022-12-07T16:31:46.838Z,8.07
2022-12-07T16:34:14.255Z,7.20
2022-12-07T16:37:03.057Z,6.20
2022-12-07T16:39:29.302Z,7.90
2022-12-07T16:41:56.588Z,7.18
2022-12-07T16:44:23.893Z,7.90
2022-12-07T16:46:51.307Z,8.48
2022-12-07T16:49:20.128Z,7.72
2022-12-07T16:52:08.661Z,7.38
2022-12-07T16:54:38.698Z,8.95
2022-12-07T16:57:06.083Z,7.25
2022-12-07T16:59:33.659Z,7.88
2022-12-07T17:02:00.980Z,6.90
2022-12-07T17:04:28.321Z,7.28
2022-12-07T17:06:55.797Z,8.23
2022-12-07T17:09:23.070Z,8.43
2022-12-07T17:11:50.409Z,8.57
2022-12-07T17:14:36.608Z,9.15
2022-12-07T17:17:05.367Z,8.35
2022-12-07T17:19:32.787Z,8.13
2022-12-07T17:22:00.086Z,9.00
2022-12-07T17:24:27.581Z,8.57
2022-12-07T17:26:54.869Z,9.38
2022-12-07T17:29:22.886Z,8.90
2022-12-07T17:31:51.856Z,10.60
2022-12-07T17:34:19.868Z,9.63
2022-12-07T17:36:48.033Z,9.65
2022-12-07T17:39:18.293Z,10.15
2022-12-07T17:42:04.589Z,8.90
2022-12-07T17:44:32.318Z,10.05
2022-12-07T17:46:59.760Z,9.82
2022-12-07T17:49:28.127Z,9.60
2022-12-07T17:52:13.990Z,13.05
2022-12-07T17:54:41.339Z,16.27
2022-12-07T17:57:10.217Z,10.07
2022-12-07T17:59:37.859Z,10.00
2022-12-07T18:02:05.541Z,11.55
2022-12-07T18:04:33.550Z,10.35
2022-12-07T18:07:00.941Z,9.55
2022-12-07T18:09:28.290Z,10.77
2022-12-07T18:11:55.629Z,10.30
2022-12-07T18:14:22.987Z,10.13
2022-12-07T18:16:50.411Z,10.52
2022-12-07T18:19:17.788Z,9.80
2022-12-07T18:21:45.939Z,10.93
2022-12-07T18:24:15.866Z,10.45
2022-12-07T18:26:44.909Z,12.30
2022-12-07T18:29:16.337Z,14.70
2022-12-07T18:31:44.676Z,10.75
2022-12-07T18:34:14.859Z,11.88
2022-12-07T18:36:46.265Z,10.30
2022-12-07T18:39:14.711Z,10.48
2022-12-07T18:41:42.629Z,10.65
2022-12-07T18:44:10.629Z,11.23
2022-12-07T18:46:38.449Z,12.23
2022-12-07T18:49:05.959Z,12.30
2022-12-07T18:51:33.752Z,11.52
2022-12-07T18:54:04.935Z,11.07
2022-12-07T18:56:32.405Z,11.95
2022-12-07T18:59:20.799Z,11.73
2022-12-07T19:01:53.102Z,10.35
2022-12-07T19:04:21.144Z,11.07
2022-12-07T19:06:49.559Z,10.57
2022-12-07T19:09:17.801Z,11.98
2022-12-07T19:11:51.747Z,11.45
2022-12-07T19:14:22.390Z,11.27
2022-12-07T19:16:52.363Z,12.20
2022-12-07T19:19:22.726Z,10.90
2022-12-07T19:21:50.953Z,10.27
2022-12-07T19:24:23.118Z,11.02
2022-12-07T19:26:52.409Z,10.00
2022-12-07T19:29:20.539Z,10.75
2022-12-07T19:31:48.517Z,9.93
2022-12-07T19:34:17.931Z,10.82
2022-12-07T19:36:46.263Z,10.65
2022-12-07T19:39:15.450Z,11.75
2022-12-07T19:41:44.545Z,12.00
2022-12-07T19:44:17.896Z,10.85
2022-12-07T19:46:47.467Z,12.05
2022-12-07T19:49:16.391Z,10.98
2022-12-07T19:51:46.880Z,11.23
2022-12-07T19:54:15.890Z,11.63
2022-12-07T19:56:44.841Z,12.18
2022-12-07T19:59:13.952Z,13.77
2022-12-07T20:01:42.362Z,14.38
2022-12-07T20:04:19.756Z,15.63
2022-12-07T20:06:52.654Z,15.45
2022-12-07T20:09:20.884Z,14.50
2022-12-07T20:12:09.479Z,15.18
2022-12-07T20:14:38.041Z,13.18
2022-12-07T20:17:06.160Z,15.43
2022-12-07T20:19:36.838Z,14.50
2022-12-07T20:22:05.218Z,14.50
2022-12-07T20:24:34.649Z,14.43
2022-12-07T20:27:03.529Z,15.88
2022-12-07T20:29:31.005Z,14.73
2022-12-07T20:31:58.417Z,13.30
2022-12-07T20:34:26.621Z,13.98
2022-12-07T20:36:55.093Z,15.40
2022-12-07T20:39:24.141Z,15.35
2022-12-07T20:42:10.863Z,12.80
2022-12-07T20:44:38.164Z,15.77
2022-12-07T20:47:06.938Z,13.40
2022-12-07T20:49:34.687Z,13.55
2022-12-07T20:52:02.070Z,13.40
2022-12-07T20:54:29.407Z,14.80
2022-12-07T20:56:56.722Z,14.93
2022-12-07T20:59:24.176Z,13.45
2022-12-07T21:01:51.845Z,15.07
2022-12-07T21:04:19.423Z,13.93
2022-12-07T21:06:46.981Z,13.82
2022-12-07T21:09:14.348Z,13.05
2022-12-07T21:11:41.686Z,12.70
2022-12-07T21:14:09.565Z,13.52
2022-12-07T21:16:36.913Z,13.45
2022-12-07T21:19:05.336Z,13.80
2022-12-07T21:21:33.491Z,12.70
2022-12-07T21:24:03.450Z,13.18
2022-12-07T21:26:34.090Z,13.13
2022-12-07T21:29:02.996Z,13.75
2022-12-07T21:31:30.422Z,12.90
2022-12-07T21:33:57.851Z,12.85
2022-12-07T21:36:26.549Z,13.35
2022-12-07T21:38:54.139Z,12.50
2022-12-07T21:41:27.199Z,12.18
2022-12-07T21:43:55.424Z,13.88
2022-12-07T21:46:29.633Z,13.98
2022-12-07T21:49:06.061Z,14.63
2022-12-07T21:51:33.856Z,15.95
2022-12-07T21:54:02.339Z,14.02
2022-12-07T21:56:41.327Z,13.20
2022-12-07T21:59:12.929Z,15.00
2022-12-07T22:01:45.333Z,13.75
2022-12-07T22:04:17.163Z,14.45
2022-12-07T22:06:45.751Z,14.15
2022-12-07T22:09:13.177Z,14.18
2022-12-07T22:11:40.909Z,14.88
2022-12-07T22:14:28.723Z,13.88
2022-12-07T22:16:57.784Z,14.73
2022-12-07T22:19:29.573Z,14.38
2022-12-07T22:21:58.166Z,15.15
2022-12-07T22:24:25.812Z,14.43
2022-12-07T22:26:53.209Z,13.68
2022-12-07T22:29:21.280Z,13.75
2022-12-07T22:31:53.398Z,13.25
2022-12-07T22:34:21.061Z,13.38
2022-12-07T22:36:57.911Z,14.02
2022-12-07T22:39:25.344Z,13.93
2022-12-07T22:41:52.818Z,13.18
2022-12-07T22:44:23.224Z,14.82
2022-12-07T22:46:54.877Z,13.50
2022-12-07T22:49:28.362Z,15.60
2022-12-07T22:51:56.084Z,13.98
2022-12-07T22:54:26.659Z,12.93
2022-12-07T22:56:53.901Z,14.40
2022-12-07T22:59:21.397Z,14.45
2022-12-07T23:01:48.854Z,14.75
2022-12-07T23:04:16.202Z,14.80
2022-12-07T23:06:43.849Z,16.63
2022-12-07T23:09:12.948Z,14.55
2022-12-07T23:12:01.117Z,14.48
2022-12-07T23:14:33.485Z,14.38
2022-12-07T23:17:01.484Z,15.30
2022-12-07T23:19:29.118Z,12.95
2022-12-07T23:21:56.667Z,14.25
2022-12-07T23:24:24.169Z,15.50
2022-12-07T23:26:52.429Z,15.20
2022-12-07T23:29:19.891Z,14.85
2022-12-07T23:31:48.302Z,15.63
2022-12-07T23:34:15.721Z,15.45
2022-12-07T23:36:43.068Z,15.60
2022-12-07T23:39:11.067Z,14.57
2022-12-07T23:41:38.490Z,15.32
2022-12-07T23:44:05.933Z,14.05
2022-12-07T23:46:34.333Z,18.77
2022-12-07T23:49:03.822Z,17.52
2022-12-07T23:51:31.984Z,20.88
2022-12-07T23:54:01.501Z,23.95
2022-12-07T23:56:30.731Z,18.40
2022-12-07T23:58:59.231Z,14.27
